createdAt,value
2018-11-21T00:00:42.647Z,95141.28
2018-11-21T00:03:31.801Z,95138.58
2018-11-21T00:06:14.917Z,95140.61
2018-11-21T00:09:05.127Z,95139.24
2018-11-21T00:11:49.176Z,95129.45
2018-11-21T00:14:57.523Z,95138.87
2018-11-21T00:17:39.755Z,95131.15
2018-11-21T00:23:25.683Z,95144.66
2018-11-21T00:26:37.798Z,95154.14
2018-11-21T00:29:20.412Z,95157.94
2018-11-21T00:32:30.188Z,95154.42
2018-11-21T00:38:13.260Z,95157.76
2018-11-21T00:41:02.685Z,95155.16
2018-11-21T00:43:45.186Z,95159.57
2018-11-21T00:49:27.216Z,95170.73
2018-11-21T00:52:16.573Z,95183.11
2018-11-21T00:55:06.154Z,95178.13
2018-11-21T00:57:48.112Z,95185.63
2018-11-21T01:00:37.733Z,95189.24
2018-11-21T01:03:27.816Z,95187.62
2018-11-21T01:06:17.357Z,95176.09
2018-11-21T01:09:07.856Z,95171.31
2018-11-21T01:11:57.407Z,95176.47
2018-11-21T01:14:47.054Z,95164.82
2018-11-21T01:17:36.668Z,95188.44
2018-11-21T01:20:25.942Z,95199.43
2018-11-21T01:23:15.677Z,95201.34
2018-11-21T01:26:05.252Z,95201.92
2018-11-21T01:28:54.480Z,95197.38
2018-11-21T01:31:44.428Z,95193.97
2018-11-21T01:34:34.107Z,95189.55
2018-11-21T01:37:23.744Z,95199.13
2018-11-21T01:40:07.278Z,95203.15
2018-11-21T01:42:56.828Z,95196.25
2018-11-21T01:45:46.392Z,95188.47
2018-11-21T01:48:36.939Z,95186.72
2018-11-21T01:51:26.548Z,95198.98
2018-11-21T01:54:16.171Z,95202.62
2018-11-21T01:57:05.742Z,95204.62
2018-11-21T01:59:55.584Z,95205.95
2018-11-21T02:02:45.107Z,95188.61
2018-11-21T02:05:14.856Z,95200.37
2018-11-21T02:08:14.992Z,95204.08
2018-11-21T02:14:01.030Z,95208.58
2018-11-21T02:35:26.776Z,95196.38
2018-11-21T02:38:09.112Z,95184.20
2018-11-21T02:40:58.855Z,95202.74
2018-11-21T02:43:48.352Z,95206.20
2018-11-21T02:46:37.838Z,95212.16
2018-11-21T02:49:27.905Z,95217.62
2018-11-21T02:52:17.417Z,95220.70
2018-11-21T02:55:07.118Z,95227.86
2018-11-21T02:57:56.379Z,95234.66
2018-11-21T03:00:45.668Z,95240.38
2018-11-21T03:03:35.265Z,95246.97
2018-11-21T03:06:24.736Z,95250.51
2018-11-21T03:09:07.457Z,95234.78
2018-11-21T03:11:56.633Z,95246.00
2018-11-21T03:14:41.292Z,95245.91
2018-11-21T03:17:30.679Z,95259.18
2018-11-21T03:20:12.467Z,95267.37
2018-11-21T03:23:01.978Z,95279.65
2018-11-21T03:25:44.721Z,95274.34
2018-11-21T03:28:34.109Z,95287.39
2018-11-21T03:31:16.083Z,95291.98
2018-11-21T03:34:05.341Z,95296.00
2018-11-21T03:36:51.102Z,95296.68
2018-11-21T03:39:40.462Z,95293.88
2018-11-21T03:42:23.057Z,95286.01
2018-11-21T03:45:13.301Z,95291.45
2018-11-21T03:47:55.502Z,95286.94
2018-11-21T03:50:45.546Z,95290.11
2018-11-21T03:53:34.883Z,95305.80
2018-11-21T03:56:24.369Z,95300.52
2018-11-21T03:59:14.330Z,95313.15
2018-11-21T04:02:04.210Z,95315.14
2018-11-21T04:04:53.777Z,95324.50
2018-11-21T04:07:43.850Z,95331.27
2018-11-21T04:10:33.347Z,95332.78
2018-11-21T04:13:42.137Z,95334.09
2018-11-21T04:16:31.433Z,95335.91
2018-11-21T04:19:20.641Z,95333.50
2018-11-21T04:22:10.698Z,95341.11
2018-11-21T04:25:00.222Z,95345.81
2018-11-21T04:27:50.228Z,95351.02
2018-11-21T04:30:40.341Z,95351.42
2018-11-21T04:33:30.016Z,95356.02
2018-11-21T04:36:19.152Z,95355.69
2018-11-21T04:39:09.757Z,95353.23
2018-11-21T04:41:59.186Z,95358.50
2018-11-21T04:44:28.996Z,95361.02
2018-11-21T04:47:18.328Z,95364.52
2018-11-21T04:50:01.129Z,95368.38
2018-11-21T04:52:50.732Z,95370.23
2018-11-21T04:55:40.020Z,95377.11
2018-11-21T04:58:29.535Z,95372.41
2018-11-21T05:01:19.113Z,95371.88
2018-11-21T05:04:08.472Z,95370.76
2018-11-21T05:06:57.831Z,95380.92
2018-11-21T05:09:47.078Z,95375.59
2018-11-21T05:12:36.775Z,95370.93
2018-11-21T05:15:26.132Z,95372.80
2018-11-21T05:18:15.285Z,95364.90
2018-11-21T05:21:04.928Z,95367.63
2018-11-21T05:23:54.310Z,95373.69
2018-11-21T05:26:43.815Z,95374.53
2018-11-21T05:29:32.917Z,95376.95
2018-11-21T05:32:16.956Z,95379.12
2018-11-21T05:35:06.643Z,95371.36
2018-11-21T05:37:53.418Z,95382.58
2018-11-21T05:40:42.808Z,95380.05
2018-11-21T05:43:25.096Z,95380.14
2018-11-21T05:46:34.336Z,95378.95
2018-11-21T05:49:20.913Z,95390.84
2018-11-21T05:52:09.918Z,95390.02
2018-11-21T05:54:53.382Z,95391.81
2018-11-21T05:58:03.128Z,95398.98
2018-11-21T06:00:49.217Z,95400.70
2018-11-21T06:06:50.181Z,95408.73
2018-11-21T06:09:39.655Z,95417.14
2018-11-21T06:15:33.122Z,95412.25
2018-11-21T06:18:15.239Z,95419.09
2018-11-21T06:21:27.056Z,95415.58
2018-11-21T06:24:08.855Z,95410.14
2018-11-21T06:27:11.229Z,95418.58
2018-11-21T06:29:53.958Z,95423.78
2018-11-21T06:32:43.658Z,95442.06
2018-11-21T06:35:26.577Z,95441.64
2018-11-21T06:47:11.379Z,95476.23
2018-11-21T06:50:00.569Z,95480.48
2018-11-21T06:52:43.011Z,95483.64
2018-11-21T07:13:45.041Z,95500.45
2018-11-21T07:16:35.209Z,95512.94
2018-11-21T07:22:17.311Z,95529.06
2018-11-21T07:25:26.952Z,95526.99
2018-11-21T07:28:13.064Z,95521.95
2018-11-21T07:30:59.719Z,95531.88
2018-11-21T07:33:46.495Z,95535.19
2018-11-21T07:36:31.755Z,95539.59
2018-11-21T07:42:16.841Z,95539.58
2018-11-21T07:45:07.917Z,95512.75
2018-11-21T07:47:50.127Z,95531.29
2018-11-21T07:50:39.293Z,95529.47
2018-11-21T07:53:22.171Z,95531.84
2018-11-21T07:56:49.909Z,95539.70
2018-11-21T07:59:38.939Z,95546.39
2018-11-21T08:02:25.509Z,95533.24
2018-11-21T08:05:19.870Z,95521.89
2018-11-21T08:08:28.099Z,95557.28
2018-11-21T08:11:37.547Z,95572.31
2018-11-21T08:14:45.646Z,95558.02
2018-11-21T08:17:53.717Z,95554.77
2018-11-21T08:21:01.824Z,95564.98
2018-11-21T08:24:09.855Z,95565.64
2018-11-21T08:27:17.954Z,95571.48
2018-11-21T08:29:47.647Z,95571.63
2018-11-21T08:32:36.757Z,95573.49
2018-11-21T08:35:18.661Z,95581.44
2018-11-21T08:38:07.793Z,95580.67
2018-11-21T08:40:56.953Z,95575.58
2018-11-21T08:43:46.141Z,95589.77
2018-11-21T08:46:35.939Z,95586.80
2018-11-21T08:49:24.967Z,95583.74
2018-11-21T08:52:14.022Z,95585.89
2018-11-21T08:55:08.771Z,95589.13
2018-11-21T08:57:45.553Z,95590.69
2018-11-21T09:00:34.852Z,95600.35
2018-11-21T09:03:16.598Z,95597.83
2018-11-21T09:06:05.962Z,95590.98
2018-11-21T09:08:47.735Z,95608.53
2018-11-21T09:11:37.143Z,95610.94
2018-11-21T09:14:18.867Z,95612.20
2018-11-21T09:17:07.898Z,95609.26
2018-11-21T09:19:50.002Z,95610.23
2018-11-21T09:22:39.090Z,95614.33
2018-11-21T09:25:21.624Z,95619.48
2018-11-21T09:28:10.708Z,95618.86
2018-11-21T09:30:52.478Z,95629.41
2018-11-21T09:33:41.530Z,95641.00
2018-11-21T09:36:25.016Z,95627.74
2018-11-21T09:39:14.449Z,95628.22
2018-11-21T09:41:56.787Z,95638.48
2018-11-21T09:44:45.872Z,95636.29
2018-11-21T09:47:28.023Z,95633.97
2018-11-21T09:50:19.168Z,95638.25
2018-11-21T09:53:01.252Z,95631.25
2018-11-21T09:55:50.399Z,95639.86
2018-11-21T09:58:31.973Z,95627.30
2018-11-21T10:01:59.631Z,95640.17
2018-11-21T10:04:41.618Z,95645.03
2018-11-21T10:07:30.727Z,95643.35
2018-11-21T10:10:12.946Z,95638.98
2018-11-21T10:13:02.010Z,95644.70
2018-11-21T10:15:43.704Z,95636.30
2018-11-21T10:18:33.260Z,95643.19
2018-11-21T10:21:19.989Z,95641.91
2018-11-21T10:24:09.108Z,95644.93
2018-11-21T10:26:51.416Z,95641.22
2018-11-21T10:29:40.496Z,95646.19
2018-11-21T10:32:22.590Z,95630.23
2018-11-21T10:35:12.015Z,95647.80
2018-11-21T10:37:54.516Z,95652.75
2018-11-21T10:40:43.609Z,95650.55
2018-11-21T10:43:28.465Z,95654.25
2018-11-21T10:46:16.007Z,95633.70
2018-11-21T10:48:58.718Z,95647.41
2018-11-21T10:51:47.790Z,95652.22
2018-11-21T10:54:29.578Z,95653.19
2018-11-21T10:57:18.659Z,95638.52
2018-11-21T11:00:00.580Z,95652.22
2018-11-21T11:03:08.552Z,95630.96
2018-11-21T11:06:09.572Z,95640.18
2018-11-21T11:09:17.611Z,95640.84
2018-11-21T11:12:18.344Z,95644.27
2018-11-21T11:15:26.490Z,95649.50
2018-11-21T11:18:27.325Z,95657.18
2018-11-21T11:21:35.320Z,95661.83
2018-11-21T11:24:35.868Z,95659.88
2018-11-21T11:27:43.843Z,95644.00
2018-11-21T11:30:44.836Z,95670.66
2018-11-21T11:33:52.834Z,95665.41
2018-11-21T11:39:57.110Z,95669.38
2018-11-21T11:43:05.125Z,95663.05
2018-11-21T11:46:08.870Z,95670.92
2018-11-21T11:49:16.868Z,95673.32
2018-11-21T11:52:18.117Z,95666.10
2018-11-21T11:55:27.222Z,95686.08
2018-11-21T11:58:28.352Z,95680.14
2018-11-21T12:01:36.324Z,95687.84
2018-11-21T12:04:43.210Z,95682.86
2018-11-21T12:07:51.186Z,95682.17
2018-11-21T12:10:55.234Z,95682.90
2018-11-21T12:14:03.250Z,95679.28
2018-11-21T12:17:03.912Z,95683.26
2018-11-21T12:20:11.945Z,95691.55
2018-11-21T12:23:12.961Z,95705.23
2018-11-21T12:26:20.951Z,95704.84
2018-11-21T12:29:22.179Z,95704.92
2018-11-21T12:32:30.183Z,95703.48
2018-11-21T12:35:32.717Z,95701.73
2018-11-21T12:38:40.713Z,95710.41
2018-11-21T12:41:41.692Z,95711.00
2018-11-21T12:44:49.680Z,95707.73
2018-11-21T12:47:50.860Z,95706.12
2018-11-21T12:50:46.828Z,95705.70
2018-11-21T12:53:48.039Z,95693.53
2018-11-21T12:56:56.030Z,95706.16
2018-11-21T12:59:59.263Z,95707.86
2018-11-21T13:03:07.274Z,95708.66
2018-11-21T13:06:09.719Z,95691.05
2018-11-21T13:09:17.770Z,95710.55
2018-11-21T13:12:19.693Z,95712.73
2018-11-21T13:15:28.151Z,95722.41
2018-11-21T13:18:31.247Z,95727.59
2018-11-21T13:21:39.301Z,95735.17
2018-11-21T13:24:40.525Z,95737.69
2018-11-21T13:27:48.491Z,95738.50
2018-11-21T13:30:55.839Z,95740.83
2018-11-21T13:34:03.836Z,95741.20
2018-11-21T13:36:59.668Z,95742.14
2018-11-21T13:40:09.810Z,95748.17
2018-11-21T13:43:11.093Z,95753.58
2018-11-21T13:46:19.062Z,95752.98
2018-11-21T13:55:01.523Z,95748.38
2018-11-21T13:57:51.185Z,95748.53
2018-11-21T14:00:40.224Z,95739.09
2018-11-21T14:03:29.651Z,95750.25
2018-11-21T14:06:18.805Z,95750.66
2018-11-21T14:09:10.667Z,95757.34
2018-11-21T14:11:52.514Z,95761.14
2018-11-21T14:14:41.620Z,95759.81
2018-11-21T14:17:27.676Z,95768.70
2018-11-21T14:20:13.555Z,95773.83
2018-11-21T14:22:55.987Z,95765.94
2018-11-21T14:25:45.898Z,95782.25
2018-11-21T14:28:32.234Z,95788.44
2018-11-21T14:31:21.286Z,95792.30
2018-11-21T14:34:03.290Z,95780.17
2018-11-21T14:36:52.352Z,95801.05
2018-11-21T14:39:34.535Z,95790.45
2018-11-21T14:42:23.579Z,95810.52
2018-11-21T14:45:31.729Z,95799.72
2018-11-21T14:48:15.366Z,95820.07
2018-11-21T14:51:01.036Z,95823.72
2018-11-21T14:53:43.728Z,95821.14
2018-11-21T14:56:32.932Z,95819.84
2018-11-21T14:59:22.184Z,95834.59
2018-11-21T15:02:11.375Z,95816.74
2018-11-21T15:05:00.487Z,95829.31
2018-11-21T15:07:49.516Z,95832.41
2018-11-21T15:10:38.588Z,95835.78
2018-11-21T15:13:27.654Z,95842.08
2018-11-21T15:16:09.572Z,95850.38
2018-11-21T15:18:58.650Z,95841.70
2018-11-21T15:21:40.884Z,95858.25
2018-11-21T15:24:29.894Z,95856.88
2018-11-21T15:27:11.830Z,95855.13
2018-11-21T15:30:01.050Z,95857.48
2018-11-21T15:32:42.863Z,95864.02
2018-11-21T15:35:31.893Z,95866.71
2018-11-21T15:38:13.735Z,95871.06
2018-11-21T15:41:02.820Z,95864.56
2018-11-21T15:43:44.879Z,95872.03
2018-11-21T15:46:33.980Z,95860.61
2018-11-21T15:52:14.691Z,95880.63
2018-11-21T15:54:56.926Z,95886.08
2018-11-21T15:57:46.068Z,95870.83
2018-11-21T16:00:36.124Z,95889.19
2018-11-21T16:03:25.408Z,95889.62
2018-11-21T16:06:14.612Z,95896.12
2018-11-21T16:09:03.821Z,95900.35
2018-11-21T16:11:52.951Z,95898.22
2018-11-21T16:14:42.065Z,95903.14
2018-11-21T16:17:31.212Z,95902.79
2018-11-21T16:20:20.596Z,95907.34
2018-11-21T16:23:09.994Z,95909.69
2018-11-21T16:25:59.113Z,95911.21
2018-11-21T16:28:48.274Z,95921.05
2018-11-21T16:31:17.984Z,95922.49
2018-11-21T16:34:07.240Z,95925.28
2018-11-21T16:36:56.348Z,95928.30
2018-11-21T16:39:45.491Z,95931.09
2018-11-21T16:42:34.750Z,95937.48
2018-11-21T16:48:06.820Z,95939.37
2018-11-21T16:50:55.919Z,95949.11
2018-11-21T16:53:37.704Z,95947.08
2018-11-21T16:56:26.766Z,95951.52
2018-11-21T17:02:20.760Z,95953.17
2018-11-21T17:05:03.827Z,95958.53
2018-11-21T17:07:47.181Z,95953.61
2018-11-21T17:10:36.273Z,95955.84
2018-11-21T17:13:18.081Z,95958.50
2018-11-21T17:16:07.154Z,95958.05
2018-11-21T17:18:52.873Z,95961.08
2018-11-21T17:21:41.921Z,95957.05
2018-11-21T17:24:24.319Z,95958.39
2018-11-21T17:27:13.348Z,95958.50
2018-11-21T17:29:55.362Z,95957.58
2018-11-21T17:32:44.497Z,95960.19
2018-11-21T17:35:29.733Z,95964.80
2018-11-21T17:38:18.820Z,95961.19
2018-11-21T17:41:07.877Z,95948.63
2018-11-21T17:43:50.453Z,95960.05
2018-11-21T17:46:33.154Z,95954.27
2018-11-21T17:49:22.283Z,95966.62
2018-11-21T17:52:12.066Z,95969.40
2018-11-21T17:55:02.326Z,95966.38
2018-11-21T18:03:41.157Z,95978.83
2018-11-21T18:06:31.367Z,95979.17
2018-11-21T18:09:21.793Z,95982.06
2018-11-21T18:12:13.885Z,95975.14
2018-11-21T18:15:23.397Z,95981.95
2018-11-21T18:27:41.327Z,95970.05
2018-11-21T18:30:31.671Z,95988.88
2018-11-21T18:33:16.182Z,95966.27
2018-11-21T18:36:05.502Z,95986.13
2018-11-21T18:41:52.740Z,95982.75
2018-11-21T18:44:42.252Z,95984.71
2018-11-21T18:50:30.755Z,95981.81
2018-11-21T18:53:18.020Z,95990.14
2018-11-21T18:56:03.847Z,95986.56
2018-11-21T18:58:59.138Z,95997.54
2018-11-21T19:04:41.413Z,95994.71
2018-11-21T19:07:30.831Z,95990.31
2018-11-21T19:22:23.118Z,96001.87
2018-11-21T19:25:13.614Z,95997.19
2018-11-21T19:27:58.088Z,96006.52
2018-11-21T19:33:48.205Z,96014.81
2018-11-21T19:36:34.914Z,96000.22
2018-11-21T19:45:09.486Z,96029.02
2018-11-21T19:47:59.066Z,96032.25
2018-11-21T19:51:10.816Z,96032.91
2018-11-21T19:53:54.659Z,96043.23
2018-11-21T19:56:39.948Z,96020.28
2018-11-21T19:59:22.756Z,96035.45
2018-11-21T20:02:12.513Z,96034.42
2018-11-21T20:05:01.795Z,96041.68
2018-11-21T20:07:51.094Z,96046.44
2018-11-21T20:10:33.345Z,96049.86
2018-11-21T20:13:22.403Z,96050.34
2018-11-21T20:16:04.052Z,96038.98
2018-11-21T20:18:53.257Z,96050.31
2018-11-21T20:21:42.400Z,96050.55
2018-11-21T20:24:31.566Z,96050.91
2018-11-21T20:27:20.723Z,96031.30
2018-11-21T20:29:54.655Z,96044.28
2018-11-21T20:32:20.155Z,96051.23
2018-11-21T20:34:49.908Z,96041.67
2018-11-21T20:37:39.567Z,96039.52
2018-11-21T20:40:31.368Z,96047.59
2018-11-21T20:43:20.532Z,96041.78
2018-11-21T20:46:09.648Z,96037.93
2018-11-21T20:48:59.242Z,96035.11
2018-11-21T20:51:28.990Z,96040.34
2018-11-21T20:54:18.121Z,96040.24
2018-11-21T20:57:00.146Z,96029.67
2018-11-21T20:59:49.325Z,96041.79
2018-11-21T21:02:39.207Z,96031.80
2018-11-21T21:05:28.652Z,96016.08
2018-11-21T21:08:17.812Z,96017.62
2018-11-21T21:11:07.399Z,96039.37
2018-11-21T21:16:39.057Z,96039.81
2018-11-21T21:19:28.512Z,96029.87
2018-11-21T21:22:10.465Z,96034.34
2018-11-21T21:25:02.271Z,96033.25
2018-11-21T21:27:44.196Z,96036.58
2018-11-21T21:30:34.018Z,96035.17
2018-11-21T21:33:16.779Z,96035.35
2018-11-21T21:36:06.047Z,96034.55
2018-11-21T21:38:48.276Z,96037.09
2018-11-21T21:41:37.357Z,96035.06
2018-11-21T21:44:19.379Z,96032.44
2018-11-21T21:47:08.432Z,96023.37
2018-11-21T21:49:54.721Z,96041.95
2018-11-21T21:52:43.806Z,96047.42
2018-11-21T21:55:26.751Z,96045.19
2018-11-21T21:58:15.816Z,96044.49
2018-11-21T22:00:57.823Z,96038.37
2018-11-21T22:03:47.111Z,96041.16
2018-11-21T22:06:36.027Z,96031.97
2018-11-21T22:09:25.140Z,96044.09
2018-11-21T22:12:07.302Z,96048.45
2018-11-21T22:14:56.373Z,96051.94
2018-11-21T22:17:39.037Z,96048.59
2018-11-21T22:20:28.149Z,96052.17
2018-11-21T22:23:09.865Z,96053.34
2018-11-21T22:25:59.017Z,96052.20
2018-11-21T22:28:42.723Z,96035.06
2018-11-21T22:31:32.186Z,96053.78
2018-11-21T22:34:14.719Z,96057.18
2018-11-21T22:37:04.135Z,96060.55
2018-11-21T22:42:58.511Z,96044.47
2018-11-21T22:45:47.637Z,96055.92
2018-11-21T22:48:29.583Z,96058.13
2018-11-21T22:51:18.662Z,96053.10
2018-11-21T22:54:00.909Z,96062.77
2018-11-21T22:56:50.459Z,96052.76
2018-11-21T22:59:33.216Z,96050.86
2018-11-21T23:02:22.323Z,96057.97
2018-11-21T23:05:04.443Z,96049.94
2018-11-21T23:07:53.569Z,96050.52
2018-11-21T23:10:35.726Z,96056.17
2018-11-21T23:13:25.702Z,96058.55
2018-11-21T23:16:07.509Z,96058.44
2018-11-21T23:18:56.645Z,96054.00
2018-11-21T23:21:38.822Z,96067.87
2018-11-21T23:24:28.152Z,96069.17
2018-11-21T23:27:10.698Z,96066.69
2018-11-21T23:30:00.622Z,96074.30
2018-11-21T23:32:43.532Z,96060.67
2018-11-21T23:35:33.469Z,96069.57
2018-11-21T23:38:22.932Z,96064.77
2018-11-21T23:41:06.340Z,96064.94
2018-11-21T23:43:55.490Z,96059.09
2018-11-21T23:46:45.022Z,96048.77
2018-11-21T23:49:34.602Z,96057.84
2018-11-21T23:52:24.050Z,96060.37
2018-11-21T23:55:15.572Z,96062.41
2018-11-21T23:58:04.889Z,96065.88
